Time;durP1;ratioP1;P1;durP2;ratioP2;P2;SDS_P1;SDS_P2;PMS_P1;PMS_P2;Temp;Humidity;BMP_temperature;BMP_pressure;BME280_temperature;BME280_humidity;BME280_pressure;Samples;Min_cycle;Max_cycle;Signal;HPM_P1;HPM_P2
2021/10/05 00:00:56;;;;;;;;;0.75;0.75;;;;;15.97;57.84;100689.19;5085250;27;45417;-52
2021/10/05 00:03:22;;;;;;;;;2.50;2.00;;;;;15.96;58.02;100680.38;5102996;27;46135;-47
2021/10/05 00:05:47;;;;;;;;;1.50;1.00;;;;;15.88;58.18;100672.69;5103431;27;45338;-49
2021/10/05 00:08:12;;;;;;;;;0.75;0.75;;;;;15.89;58.14;100673.56;5095758;27;45303;-48
2021/10/05 00:10:39;;;;;;;;;1.75;1.75;;;;;15.90;57.95;100668.22;5096704;27;45363;-49
2021/10/05 00:13:04;;;;;;;;;3.50;2.25;;;;;15.90;57.81;100665.56;5090656;27;45450;-51
2021/10/05 00:15:30;;;;;;;;;1.00;1.00;;;;;15.87;58.04;100663.03;5071180;27;45404;-51
2021/10/05 00:17:55;;;;;;;;;1.25;1.25;;;;;15.87;57.84;100667.44;5085112;27;45445;-49
2021/10/05 00:20:20;;;;;;;;;2.25;1.25;;;;;15.85;57.95;100662.22;5102142;27;45295;-48
2021/10/05 00:22:46;;;;;;;;;3.75;1.75;;;;;15.82;58.14;100659.66;5102692;27;45332;-50
2021/10/05 00:25:12;;;;;;;;;1.75;1.75;;;;;15.79;58.25;100659.75;5090563;27;45316;-49
2021/10/05 00:27:38;;;;;;;;;1.75;1.75;;;;;15.77;58.40;100648.34;5085896;27;45252;-47
2021/10/05 00:30:05;;;;;;;;;3.25;2.00;;;;;15.78;58.47;100658.03;5103276;27;45216;-50
2021/10/05 00:32:31;;;;;;;;;2.00;2.00;;;;;15.74;58.53;100653.78;5070992;27;46472;-49
2021/10/05 00:34:56;;;;;;;;;2.00;2.00;;;;;15.71;58.24;100646.81;5094761;27;45485;-46
2021/10/05 00:37:21;;;;;;;;;1.50;0.75;;;;;15.73;58.21;100662.63;5097092;27;45148;-49
2021/10/05 00:39:47;;;;;;;;;2.00;0.67;;;;;15.71;58.26;100637.97;5095364;27;45272;-51
2021/10/05 00:42:12;;;;;;;;;1.50;0.50;;;;;15.71;58.52;100645.94;5089011;27;46296;-48
2021/10/05 00:44:39;;;;;;;;;3.25;2.00;;;;;15.67;58.28;100637.25;5090042;27;45350;-46
2021/10/05 00:47:07;;;;;;;;;2.67;1.67;;;;;15.67;58.49;100639.03;5101647;27;45387;-51
2021/10/05 00:49:33;;;;;;;;;3.00;1.50;;;;;15.64;58.53;100628.56;5102191;27;45437;-51
2021/10/05 00:52:01;;;;;;;;;1.75;1.25;;;;;15.58;58.59;100627.88;5088628;27;46295;-46
2021/10/05 00:54:27;;;;;;;;;0.00;0.00;;;;;15.58;58.72;100617.28;5088743;27;45275;-46
2021/10/05 00:56:53;;;;;;;;;2.25;0.50;;;;;15.57;58.48;100622.59;5095647;27;45272;-47
2021/10/05 00:59:18;;;;;;;;;0.50;0.50;;;;;15.55;58.87;100608.56;5101669;27;45407;-49
2021/10/05 01:01:44;;;;;;;;;2.25;0.75;;;;;15.53;58.68;100611.25;5089319;27;45343;-46
2021/10/05 01:04:10;;;;;;;;;3.75;1.50;;;;;15.52;58.57;100598.97;5101834;27;45529;-47
2021/10/05 01:06:35;;;;;;;;;2.00;2.00;;;;;15.46;58.63;100599.19;5089766;27;45473;-50
2021/10/05 01:09:00;;;;;;;;;4.00;1.25;;;;;15.46;58.55;100596.53;5088692;27;45430;-46
2021/10/05 01:11:26;;;;;;;;;1.50;1.00;;;;;15.44;58.67;100588.66;5095020;27;45339;-47
2021/10/05 01:13:51;;;;;;;;;2.25;1.50;;;;;15.39;58.54;100585.28;5095216;27;45310;-48
2021/10/05 01:16:18;;;;;;;;;3.50;2.00;;;;;15.38;58.52;100580.94;5071525;27;45335;-47
2021/10/05 01:18:46;;;;;;;;;2.50;2.00;;;;;15.36;58.80;100576.63;5083730;27;45353;-46
2021/10/05 01:21:12;;;;;;;;;1.00;1.00;;;;;15.33;58.78;100568.78;5100440;27;46541;-47
2021/10/05 01:23:37;;;;;;;;;1.75;1.75;;;;;15.30;58.88;100563.59;5102171;27;45476;-46
2021/10/05 01:26:03;;;;;;;;;4.25;2.50;;;;;15.27;58.74;100564.56;5088491;27;45348;-47
2021/10/05 01:28:29;;;;;;;;;3.75;2.50;;;;;15.23;59.00;100569.13;5089200;27;45304;-47
2021/10/05 01:30:55;;;;;;;;;4.75;2.75;;;;;15.21;59.56;100568.28;5095052;27;46263;-47
2021/10/05 01:33:24;;;;;;;;;8.50;2.00;;;;;15.20;58.94;100555.13;5076422;27;45340;-47
2021/10/05 01:35:50;;;;;;;;;3.00;2.00;;;;;15.17;59.02;100558.75;5093711;27;45315;-47
2021/10/05 01:38:15;;;;;;;;;2.00;1.50;;;;;15.15;59.03;100550.00;5088191;27;45285;-47
2021/10/05 01:40:41;;;;;;;;;2.00;2.00;;;;;15.13;59.05;100540.38;5094704;27;46096;-47
2021/10/05 01:43:06;;;;;;;;;2.00;1.75;;;;;15.14;59.35;100547.41;5094947;27;45221;-47
2021/10/05 01:45:32;;;;;;;;;1.25;1.25;;;;;15.10;59.36;100536.91;5088972;27;46067;-50
2021/10/05 01:47:57;;;;;;;;;3.00;2.00;;;;;15.02;59.09;100522.22;5083334;27;45394;-52
2021/10/05 01:50:23;;;;;;;;;1.00;1.00;;;;;15.05;59.42;100533.56;5101921;27;45307;-49
2021/10/05 01:52:49;;;;;;;;;1.50;1.50;;;;;15.02;59.23;100520.47;5088037;27;45322;-50
2021/10/05 01:55:16;;;;;;;;;1.00;1.00;;;;;15.02;59.14;100517.81;5094495;27;45319;-49
2021/10/05 01:57:42;;;;;;;;;4.00;1.75;;;;;14.95;59.43;100514.53;5094872;27;45461;-47
2021/10/05 02:00:08;;;;;;;;;3.00;1.75;;;;;14.96;59.45;100507.47;5092963;27;46004;-51
2021/10/05 02:02:34;;;;;;;;;1.00;1.00;;;;;14.94;59.77;100486.34;5094991;27;45493;-47
2021/10/05 02:04:59;;;;;;;;;2.25;2.25;;;;;14.94;59.87;100493.41;5093753;27;45310;-47
2021/10/05 02:07:24;;;;;;;;;5.00;3.75;;;;;14.91;59.48;100478.50;5094611;27;45402;-50
2021/10/05 02:09:50;;;;;;;;;2.00;2.00;;;;;14.90;59.92;100476.78;5089220;27;45181;-50
2021/10/05 02:12:16;;;;;;;;;2.75;1.75;;;;;14.88;59.73;100475.09;5087541;27;45256;-51
2021/10/05 02:14:46;;;;;;;;;1.00;0.00;;;;;14.86;59.56;100469.88;5093824;27;45213;-51
2021/10/05 02:17:12;;;;;;;;;2.00;2.00;;;;;14.83;59.82;100477.94;5094447;27;45333;-51
2021/10/05 02:19:38;;;;;;;;;3.75;2.00;;;;;14.77;59.72;100459.66;5089473;27;46724;-51
2021/10/05 02:22:05;;;;;;;;;2.00;2.00;;;;;14.78;60.15;100461.38;5099469;27;45233;-49
2021/10/05 02:24:43;;;;;;;;;2.25;2.25;;;;;14.78;60.12;100477.25;5094749;27;45303;-49
2021/10/05 02:27:14;;;;;;;;;4.00;2.00;;;;;14.76;60.34;100463.19;5094089;27;45375;-50
2021/10/05 02:29:40;;;;;;;;;2.75;1.25;;;;;14.74;60.10;100451.81;5071487;27;46264;-47
2021/10/05 02:32:07;;;;;;;;;2.00;1.50;;;;;14.73;60.32;100453.59;5082660;27;45403;-49
2021/10/05 02:34:34;;;;;;;;;4.75;2.50;;;;;14.73;60.41;100442.13;5092251;27;45419;-46
2021/10/05 02:36:59;;;;;;;;;3.00;3.00;;;;;14.70;60.20;100443.13;5097606;27;45249;-50
2021/10/05 02:39:25;;;;;;;;;1.00;1.00;;;;;14.71;60.12;100433.41;5072179;27;46186;-52
2021/10/05 02:41:50;;;;;;;;;3.75;3.25;;;;;14.69;60.33;100433.47;5087182;27;45378;-49
2021/10/05 02:44:15;;;;;;;;;2.00;1.25;;;;;14.69;60.48;100427.31;5091270;27;45514;-49
2021/10/05 02:46:41;;;;;;;;;1.50;1.50;;;;;14.67;60.41;100403.56;5094177;27;45426;-48
2021/10/05 02:49:06;;;;;;;;;1.75;1.25;;;;;14.66;60.27;100407.13;5090149;27;45363;-49
2021/10/05 02:51:32;;;;;;;;;3.00;1.00;;;;;14.63;60.48;100405.44;5097669;27;45275;-51
2021/10/05 02:53:58;;;;;;;;;2.50;2.00;;;;;14.65;59.97;100407.19;5090502;27;45254;-48
2021/10/05 02:56:24;;;;;;;;;2.00;2.00;;;;;14.62;60.27;100400.19;5087207;27;45306;-52
2021/10/05 02:58:49;;;;;;;;;2.50;2.00;;;;;14.61;60.09;100396.69;5100158;27;45200;-50
2021/10/05 03:01:15;;;;;;;;;2.00;2.00;;;;;14.58;60.31;100383.59;5087171;27;45245;-50
2021/10/05 03:03:40;;;;;;;;;2.00;2.00;;;;;14.61;60.04;100385.25;5100639;27;45300;-51
2021/10/05 03:06:06;;;;;;;;;2.00;2.00;;;;;14.61;60.56;100385.25;5087077;27;45279;-49
2021/10/05 03:08:32;;;;;;;;;2.75;1.00;;;;;14.58;60.15;100375.66;5090286;27;46099;-49
2021/10/05 03:10:58;;;;;;;;;3.25;2.00;;;;;14.57;60.40;100376.56;5093297;27;45397;-51
2021/10/05 03:13:24;;;;;;;;;2.50;2.50;;;;;14.54;60.63;100366.13;5090892;27;45465;-47
2021/10/05 03:15:49;;;;;;;;;2.00;2.00;;;;;14.57;60.33;100373.06;5086832;27;45384;-51
2021/10/05 03:18:15;;;;;;;;;2.00;2.00;;;;;14.55;60.63;100369.59;5089678;27;45332;-51
2021/10/05 03:20:40;;;;;;;;;1.75;1.75;;;;;14.54;60.28;100358.19;5095838;27;45415;-49
2021/10/05 03:23:05;;;;;;;;;4.50;2.25;;;;;14.44;60.47;100352.34;5100732;27;45378;-48
2021/10/05 03:25:31;;;;;;;;;3.00;2.00;;;;;14.53;60.83;100372.31;5080340;27;45515;-49
2021/10/05 03:27:56;;;;;;;;;3.00;2.00;;;;;14.51;60.74;100365.34;5091857;27;46224;-50
2021/10/05 03:30:21;;;;;;;;;1.50;1.00;;;;;14.52;60.92;100361.81;5093738;27;45417;-50
2021/10/05 03:32:47;;;;;;;;;2.00;2.00;;;;;14.52;60.50;100348.59;5088530;27;45228;-49
2021/10/05 03:35:12;;;;;;;;;0.50;0.50;;;;;14.51;61.10;100339.78;5091885;27;45304;-49
2021/10/05 03:37:37;;;;;;;;;3.75;1.00;;;;;14.51;60.82;100337.13;5092310;27;45277;-47
2021/10/05 03:40:04;;;;;;;;;3.50;2.00;;;;;14.52;60.55;100333.56;5093277;27;45270;-50
2021/10/05 03:42:31;;;;;;;;;2.00;1.00;;;;;14.54;60.92;100320.28;5088306;27;45348;-47
2021/10/05 03:44:57;;;;;;;;;6.00;3.00;;;;;14.52;60.71;100322.16;5086217;27;45469;-50
2021/10/05 03:47:22;;;;;;;;;1.75;1.50;;;;;14.56;61.18;100321.94;5072968;28;45869;-50
2021/10/05 03:49:48;;;;;;;;;2.75;2.75;;;;;14.56;60.68;100319.31;5093117;27;45354;-49
2021/10/05 03:52:13;;;;;;;;;2.50;2.50;;;;;14.56;60.73;100307.88;5088651;27;45529;-50
2021/10/05 03:54:38;;;;;;;;;2.75;2.75;;;;;14.60;60.58;100313.00;5086380;27;45323;-49
2021/10/05 03:57:04;;;;;;;;;2.00;2.00;;;;;14.58;60.85;100298.97;5092946;27;46416;-49
2021/10/05 03:59:29;;;;;;;;;2.00;2.00;;;;;14.61;61.03;100304.13;5097840;27;45514;-50
2021/10/05 04:01:54;;;;;;;;;2.50;2.00;;;;;14.62;61.03;100297.06;5070234;27;45310;-52
2021/10/05 04:04:20;;;;;;;;;1.00;1.00;;;;;14.59;61.13;100282.19;5097556;27;45445;-48
2021/10/05 04:06:45;;;;;;;;;2.00;2.00;;;;;14.62;61.07;100286.50;5088154;27;46052;-51
2021/10/05 04:09:11;;;;;;;;;2.00;2.00;;;;;14.60;61.42;100289.22;5086305;27;45417;-48
2021/10/05 04:11:36;;;;;;;;;3.75;2.00;;;;;14.61;61.13;100280.31;5091215;27;45355;-49
2021/10/05 04:14:02;;;;;;;;;3.25;1.75;;;;;14.65;60.99;100277.63;5092891;27;45415;-51
2021/10/05 04:16:28;;;;;;;;;1.75;1.00;;;;;14.66;61.46;100288.13;5049847;28;46181;-46
2021/10/05 04:18:54;;;;;;;;;2.00;1.75;;;;;14.67;60.98;100278.44;5081179;27;45262;-48
2021/10/05 04:21:19;;;;;;;;;2.00;1.50;;;;;14.67;61.00;100275.78;5098677;27;45218;-50
2021/10/05 04:23:45;;;;;;;;;4.00;2.00;;;;;14.69;61.68;100276.56;5102768;27;45236;-48
2021/10/05 04:26:11;;;;;;;;;1.75;1.50;;;;;14.71;61.46;100280.03;5090143;27;45295;-47
2021/10/05 04:28:36;;;;;;;;;2.75;2.25;;;;;14.71;61.44;100266.81;5089416;27;45274;-49
2021/10/05 04:31:01;;;;;;;;;5.00;3.00;;;;;14.71;60.94;100264.16;5095979;27;45169;-47
2021/10/05 04:33:27;;;;;;;;;3.00;2.00;;;;;14.70;61.04;100262.44;5078062;27;45769;-49
2021/10/05 04:35:52;;;;;;;;;4.00;3.00;;;;;14.71;61.18;100250.94;5094933;27;46971;-48
2021/10/05 04:38:18;;;;;;;;;2.50;2.25;;;;;14.73;61.47;100257.00;5101400;27;45397;-48
2021/10/05 04:40:43;;;;;;;;;4.00;2.75;;;;;14.70;61.25;100249.22;5096249;27;45272;-46
2021/10/05 04:43:08;;;;;;;;;2.00;2.00;;;;;14.68;61.30;100253.69;5095952;27;45276;-49
2021/10/05 04:45:33;;;;;;;;;2.00;2.00;;;;;14.68;61.47;100243.09;5089537;27;45295;-46
2021/10/05 04:48:03;;;;;;;;;4.75;4.00;;;;;14.66;61.50;100231.75;5089040;27;45366;-52
2021/10/05 04:50:28;;;;;;;;;4.50;2.50;;;;;14.66;61.59;100232.59;5095226;27;45302;-52
2021/10/05 04:52:54;;;;;;;;;3.50;3.00;;;;;14.67;61.64;100222.91;5095837;27;45497;-51
2021/10/05 04:55:19;;;;;;;;;3.00;3.00;;;;;14.62;61.64;100229.16;5090052;27;45220;-47
2021/10/05 04:57:45;;;;;;;;;3.75;3.50;;;;;14.65;61.63;100224.72;5095612;27;45248;-49
2021/10/05 05:00:10;;;;;;;;;4.00;4.00;;;;;14.65;61.95;100216.78;5095029;27;45621;-50
2021/10/05 05:02:36;;;;;;;;;4.50;4.00;;;;;14.66;61.65;100213.22;5096396;27;45391;-50
2021/10/05 05:05:01;;;;;;;;;5.75;5.00;;;;;14.66;61.73;100213.22;5094731;27;46516;-50
2021/10/05 05:07:27;;;;;;;;;5.75;5.00;;;;;14.65;61.63;100207.06;5096413;27;45217;-49
2021/10/05 05:09:52;;;;;;;;;4.75;4.50;;;;;14.65;62.16;100200.94;5094969;27;45903;-46
2021/10/05 05:12:17;;;;;;;;;7.25;6.75;;;;;14.66;61.52;100190.28;5077062;27;45424;-48
2021/10/05 05:14:43;;;;;;;;;6.00;6.00;;;;;14.65;61.66;100177.13;5071477;27;47554;-51
2021/10/05 05:17:08;;;;;;;;;10.75;6.00;;;;;14.62;61.97;100173.63;5088637;27;45280;-49
2021/10/05 05:19:34;;;;;;;;;8.75;7.00;;;;;14.66;62.05;100182.34;5094622;27;45415;-48
2021/10/05 05:21:59;;;;;;;;;7.00;7.00;;;;;14.63;62.11;100188.59;5096600;27;45422;-47
2021/10/05 05:24:28;;;;;;;;;9.00;7.50;;;;;14.65;61.94;100177.97;5096105;27;46734;-49
2021/10/05 05:26:54;;;;;;;;;8.00;6.25;;;;;14.67;62.17;100183.22;5095222;27;45337;-46
2021/10/05 05:29:20;;;;;;;;;10.25;8.50;;;;;14.66;62.22;100176.22;5088523;27;45243;-48
2021/10/05 05:31:48;;;;;;;;;9.25;7.75;;;;;14.63;61.95;100164.78;5088951;27;45245;-54
2021/10/05 05:34:13;;;;;;;;;8.25;5.75;;;;;14.66;62.27;100170.94;5101383;27;46164;-50
2021/10/05 05:36:38;;;;;;;;;11.50;9.75;;;;;14.68;61.98;100148.78;5100905;27;45413;-50
2021/10/05 05:39:04;;;;;;;;;13.00;11.75;;;;;14.67;61.95;100149.69;5088365;27;45261;-50
2021/10/05 05:41:29;;;;;;;;;11.00;11.00;;;;;14.71;62.05;100145.16;5088617;27;45310;-47
2021/10/05 05:43:54;;;;;;;;;13.25;11.00;;;;;14.72;62.33;100146.88;5101508;27;46117;-52
2021/10/05 05:46:20;;;;;;;;;9.25;9.25;;;;;14.70;62.56;100143.44;5102147;27;45322;-47
2021/10/05 05:48:45;;;;;;;;;11.25;11.25;;;;;14.69;62.00;100137.28;5088335;27;45259;-49
2021/10/05 05:51:11;;;;;;;;;16.00;14.00;;;;;14.69;62.39;100124.06;5083465;27;45476;-48
2021/10/05 05:53:36;;;;;;;;;11.75;11.75;;;;;14.74;62.05;100132.66;5088117;27;45980;-46
2021/10/05 05:56:02;;;;;;;;;16.25;12.00;;;;;14.72;62.09;100133.66;5088241;27;45338;-47
2021/10/05 05:58:28;;;;;;;;;10.50;8.25;;;;;14.76;62.30;100135.25;5101417;27;45504;-52
2021/10/05 06:00:54;;;;;;;;;11.50;10.50;;;;;14.76;62.33;100128.16;5087788;27;46790;-59
2021/10/05 06:03:19;;;;;;;;;10.50;9.00;;;;;14.75;62.18;100128.22;5101045;27;46952;-48
2021/10/05 06:05:45;;;;;;;;;11.00;9.00;;;;;14.77;62.49;100129.88;5087856;27;45245;-48
2021/10/05 06:08:10;;;;;;;;;7.00;6.00;;;;;14.74;62.56;100124.72;5094504;27;45142;-47
2021/10/05 06:10:36;;;;;;;;;6.50;6.50;;;;;14.75;62.17;100121.16;5094912;27;45387;-55
2021/10/05 06:13:01;;;;;;;;;7.00;6.00;;;;;14.77;62.62;100129.88;5088078;27;45441;-52
2021/10/05 06:15:27;;;;;;;;;9.00;6.00;;;;;14.77;62.73;100121.94;5087770;27;45226;-52
2021/10/05 06:17:52;;;;;;;;;5.75;5.00;;;;;14.79;63.03;100111.28;5101467;27;45357;-50
2021/10/05 06:20:25;;;;;;;;;3.50;3.25;;;;;14.82;62.83;100111.19;5087611;27;45314;-60
2021/10/05 06:22:51;;;;;;;;;6.00;6.00;;;;;14.88;62.79;100108.28;5100596;27;46230;-49
2021/10/05 06:25:22;;;;;;;;;7.75;5.50;;;;;14.90;63.01;100111.72;5087961;27;45481;-53
2021/10/05 06:27:48;;;;;;;;;8.25;4.75;;;;;14.95;62.79;100103.59;5101225;27;45169;-51
2021/10/05 06:30:16;;;;;;;;;6.00;5.00;;;;;15.00;62.94;100092.81;5087519;27;45403;-51
2021/10/05 06:32:42;;;;;;;;;6.25;3.25;;;;;15.02;62.88;100088.28;5062279;28;48110;-50
2021/10/05 06:35:08;;;;;;;;;6.50;3.75;;;;;15.07;62.61;100083.69;5093806;27;45461;-50
2021/10/05 06:37:33;;;;;;;;;3.25;2.75;;;;;15.08;62.35;100086.28;5093296;27;45320;-47
2021/10/05 06:39:59;;;;;;;;;3.75;3.00;;;;;15.05;62.34;100070.50;5093997;27;45456;-50
2021/10/05 06:42:25;;;;;;;;;5.25;2.75;;;;;15.12;62.89;100084.34;5088227;27;46336;-45
2021/10/05 06:44:50;;;;;;;;;3.00;3.00;;;;;15.13;62.38;100079.91;5086586;27;45315;-48
2021/10/05 06:47:15;;;;;;;;;4.25;3.75;;;;;15.13;62.59;100078.09;5093165;27;45557;-46
2021/10/05 06:49:41;;;;;;;;;3.00;3.00;;;;;15.13;62.30;100071.97;5094187;27;45429;-48
2021/10/05 06:52:06;;;;;;;;;4.00;3.75;;;;;15.13;62.57;100079.91;5088030;27;46207;-46
2021/10/05 06:54:32;;;;;;;;;3.00;3.00;;;;;15.10;62.36;100079.09;5100824;27;45366;-51
2021/10/05 06:56:58;;;;;;;;;5.25;5.00;;;;;15.10;63.00;100086.19;5093923;27;45441;-48
2021/10/05 06:59:24;;;;;;;;;5.25;3.50;;;;;15.08;63.05;100082.75;5082272;27;45315;-50
2021/10/05 07:01:49;;;;;;;;;3.00;3.00;;;;;15.06;62.30;100081.97;5097425;27;46075;-47
2021/10/05 07:04:15;;;;;;;;;4.25;4.25;;;;;15.05;62.96;100083.75;5099265;27;45331;-50
2021/10/05 07:06:41;;;;;;;;;4.50;4.50;;;;;15.01;62.80;100084.81;5069965;27;45228;-48
2021/10/05 07:09:06;;;;;;;;;4.00;2.75;;;;;14.97;62.85;100069.13;5086834;27;45485;-48
2021/10/05 07:11:33;;;;;;;;;7.00;3.75;;;;;14.92;63.53;100072.84;5092809;27;46376;-49
2021/10/05 07:13:59;;;;;;;;;5.00;4.00;;;;;14.86;63.49;100064.31;5093779;27;45374;-50
2021/10/05 07:16:24;;;;;;;;;4.00;4.00;;;;;14.82;63.33;100062.69;5088300;27;45490;-46
2021/10/05 07:18:49;;;;;;;;;5.75;3.75;;;;;14.75;63.94;100063.00;5098922;27;45435;-47
2021/10/05 07:21:16;;;;;;;;;2.50;2.50;;;;;14.73;63.76;100061.31;5087795;27;46605;-50
2021/10/05 07:23:42;;;;;;;;;3.50;3.50;;;;;14.69;64.06;100043.84;5100562;27;45542;-49
2021/10/05 07:26:07;;;;;;;;;4.75;4.00;;;;;14.63;63.61;100037.03;5086738;27;45295;-48
2021/10/05 07:28:32;;;;;;;;;4.00;3.00;;;;;14.61;64.09;100031.78;5087010;27;45247;-48
2021/10/05 07:30:58;;;;;;;;;5.25;4.00;;;;;14.60;64.00;100043.31;5093523;27;46101;-50
2021/10/05 07:33:25;;;;;;;;;3.00;3.00;;;;;14.56;64.35;100041.69;5093227;27;45247;-51
2021/10/05 07:35:51;;;;;;;;;3.75;2.50;;;;;14.53;64.21;100020.69;5066650;28;45186;-49
2021/10/05 07:38:16;;;;;;;;;4.25;4.25;;;;;14.52;64.76;100034.81;5093477;27;45236;-52
2021/10/05 07:40:41;;;;;;;;;4.50;3.50;;;;;14.49;64.47;100020.88;5086944;27;46196;-52
2021/10/05 07:43:10;;;;;;;;;4.50;4.00;;;;;14.46;65.15;100021.84;5086457;27;45187;-52
2021/10/05 07:45:37;;;;;;;;;3.00;3.00;;;;;14.43;64.59;100028.13;5082128;27;45354;-52
2021/10/05 07:48:03;;;;;;;;;5.25;3.50;;;;;14.42;65.10;100025.56;5067913;27;45453;-52
2021/10/05 07:50:28;;;;;;;;;5.00;4.50;;;;;14.39;64.56;100023.03;5092291;27;47191;-49
2021/10/05 07:52:54;;;;;;;;;2.00;2.00;;;;;14.37;65.07;100016.97;5075028;27;45219;-53
2021/10/05 07:55:19;;;;;;;;;4.00;2.50;;;;;14.32;64.84;100003.09;5087404;27;45805;-47
2021/10/05 07:57:45;;;;;;;;;4.50;3.25;;;;;14.30;65.36;99996.06;5095115;27;45347;-50
2021/10/05 08:00:11;;;;;;;;;6.50;3.75;;;;;14.29;65.52;99994.34;5095781;27;45369;-52
2021/10/05 08:02:38;;;;;;;;;3.50;3.50;;;;;14.21;65.26;99972.66;5097499;27;45169;-46
2021/10/05 08:05:04;;;;;;;;;5.50;5.50;;;;;14.22;65.79;99981.47;5095546;27;45487;-49
2021/10/05 08:07:29;;;;;;;;;3.00;2.75;;;;;14.20;65.10;99978.88;5096486;27;45491;-50
2021/10/05 08:09:56;;;;;;;;;3.25;3.25;;;;;14.17;66.06;99972.88;5091193;27;46209;-51
2021/10/05 08:12:24;;;;;;;;;5.75;3.25;;;;;14.14;65.54;99961.47;5089698;27;45536;-52
2021/10/05 08:14:50;;;;;;;;;2.25;2.25;;;;;14.16;65.87;99957.94;5103382;27;45419;-51
2021/10/05 08:17:16;;;;;;;;;3.00;2.50;;;;;14.14;65.72;99961.47;5089391;27;45325;-51
2021/10/05 08:19:41;;;;;;;;;4.75;3.75;;;;;14.13;66.15;99961.56;5093557;27;45243;-47
2021/10/05 08:22:06;;;;;;;;;4.25;4.25;;;;;14.14;66.16;99972.06;5098810;27;45232;-49
2021/10/05 08:24:32;;;;;;;;;3.00;3.00;;;;;14.13;65.86;99969.47;5085060;27;45208;-50
2021/10/05 08:26:57;;;;;;;;;3.00;3.00;;;;;14.14;66.00;99955.34;5102742;27;45285;-49
2021/10/05 08:29:23;;;;;;;;;5.00;3.00;;;;;14.15;66.43;99965.00;5089741;27;46271;-50
2021/10/05 08:31:50;;;;;;;;;6.00;3.00;;;;;14.15;66.40;99965.00;5089388;27;45359;-52
2021/10/05 08:34:17;;;;;;;;;6.75;5.00;;;;;14.10;66.59;99945.81;5095473;27;45412;-51
2021/10/05 08:36:42;;;;;;;;;5.50;4.50;;;;;14.13;66.22;99998.53;5069854;27;47063;-51
2021/10/05 08:39:10;;;;;;;;;3.75;3.75;;;;;14.14;66.34;99965.94;5095350;27;45359;-47
2021/10/05 08:41:39;;;;;;;;;4.50;3.75;;;;;14.13;66.78;99961.56;5097077;27;45291;-48
2021/10/05 08:44:04;;;;;;;;;4.50;3.50;;;;;14.14;66.05;99927.13;5103018;27;45303;-48
2021/10/05 08:46:36;;;;;;;;;2.25;2.25;;;;;14.13;66.69;99948.34;5102616;27;45489;-48
2021/10/05 08:49:02;;;;;;;;;5.75;3.25;;;;;14.11;66.31;99932.56;5093493;27;45279;-50
2021/10/05 08:51:27;;;;;;;;;4.00;3.00;;;;;14.17;66.01;99947.28;5095962;27;45475;-48
2021/10/05 08:53:53;;;;;;;;;5.75;3.50;;;;;14.18;66.64;99951.66;5073409;27;45393;-49
2021/10/05 08:56:18;;;;;;;;;5.00;3.25;;;;;14.20;67.43;99943.66;5088810;27;45359;-50
2021/10/05 08:58:44;;;;;;;;;3.00;3.00;;;;;14.24;66.98;99945.28;5102183;27;45989;-48
2021/10/05 09:01:13;;;;;;;;;3.00;3.00;;;;;14.27;67.87;99961.81;5088796;27;45400;-52
2021/10/05 09:03:47;;;;;;;;;4.00;3.00;;;;;14.27;66.54;99995.34;5102344;27;45232;-52
2021/10/05 09:06:14;;;;;;;;;4.00;3.75;;;;;14.27;66.77;99938.03;5088903;27;45213;-51
2021/10/05 09:08:44;;;;;;;;;4.00;3.00;;;;;14.29;67.18;99938.84;5083543;27;48351;-51
2021/10/05 09:11:11;;;;;;;;;2.00;2.00;;;;;14.30;66.22;99955.56;5095807;27;46036;-51
2021/10/05 09:13:40;;;;;;;;;2.00;2.00;;;;;14.32;66.88;99952.88;5082003;28;45379;-50
2021/10/05 09:16:27;;;;;;;;;3.50;3.50;;;;;14.36;68.25;99957.94;5095386;27;45524;-50
2021/10/05 09:18:56;;;;;;;;;2.00;2.00;;;;;14.37;66.94;99962.31;5095097;27;45332;-48
2021/10/05 09:21:24;;;;;;;;;1.50;1.50;;;;;14.38;68.19;99961.38;5091230;27;45585;-49
2021/10/05 09:23:56;;;;;;;;;2.50;2.50;;;;;14.40;69.64;99985.09;5102023;27;45288;-51
2021/10/05 09:26:57;;;;;;;;;1.00;1.00;;;;;14.40;69.03;99974.53;5102182;27;45421;-49
2021/10/05 09:29:34;;;;;;;;;1.00;1.00;;;;;14.45;69.04;100013.06;5081378;28;46247;-49
2021/10/05 09:32:32;;;;;;;;;3.00;1.00;;;;;14.47;69.52;100026.22;5094815;27;45423;-50
2021/10/05 09:34:58;;;;;;;;;1.00;1.00;;;;;14.46;69.75;100027.16;5052163;27;45494;-46
2021/10/05 09:37:30;;;;;;;;;0.00;0.00;;;;;14.45;69.63;100036.00;5088479;27;45306;-51
2021/10/05 09:40:12;;;;;;;;;0.00;0.00;;;;;14.48;69.75;100033.22;5081377;27;47369;-47
2021/10/05 09:42:44;;;;;;;;;0.00;0.00;;;;;14.43;69.23;100029.94;5091659;27;45507;-48
2021/10/05 09:45:18;;;;;;;;;0.00;0.00;;;;;14.41;68.94;100029.13;5095311;27;45231;-50
2021/10/05 09:47:46;;;;;;;;;0.00;0.00;;;;;14.35;69.32;100037.31;5093170;27;45257;-49
2021/10/05 09:50:18;;;;;;;;;0.00;0.00;;;;;14.32;69.22;100040.09;5087825;27;45244;-48
2021/10/05 09:52:47;;;;;;;;;0.33;0.33;;;;;14.33;69.26;100042.66;5088503;27;45452;-50
2021/10/05 09:55:15;;;;;;;;;2.00;0.33;;;;;14.33;69.24;100047.94;5088361;27;45386;-52
2021/10/05 09:57:41;;;;;;;;;1.00;1.00;;;;;14.33;68.71;100045.28;5082746;27;45442;-50
2021/10/05 10:00:09;;;;;;;;;0.75;0.00;;;;;14.32;68.91;100048.00;5082993;27;47173;-51
2021/10/05 10:02:39;;;;;;;;;0.00;0.00;;;;;14.28;68.92;100045.47;5101180;27;45334;-51
2021/10/05 10:05:06;;;;;;;;;2.00;0.50;;;;;14.29;68.69;100049.84;5081003;27;45366;-50
2021/10/05 10:07:35;;;;;;;;;0.00;0.00;;;;;14.33;69.24;100055.88;5086040;27;45303;-51
2021/10/05 10:10:01;;;;;;;;;0.67;0.67;;;;;14.35;68.81;100053.16;5083049;27;45410;-48
2021/10/05 10:12:26;;;;;;;;;0.00;0.00;;;;;14.37;69.04;100059.25;5072571;27;45308;-50
2021/10/05 10:14:53;;;;;;;;;0.00;0.00;;;;;14.38;68.96;100079.47;5090239;27;45204;-47
2021/10/05 10:17:23;;;;;;;;;1.00;1.00;;;;;14.43;68.69;100090.72;5097886;27;45565;-50
2021/10/05 10:19:48;;;;;;;;;1.25;1.25;;;;;14.41;68.93;100092.56;5086979;27;46285;-50
2021/10/05 10:22:13;;;;;;;;;2.00;1.00;;;;;14.44;68.83;100097.75;5089973;27;45288;-52
2021/10/05 10:24:47;;;;;;;;;1.50;0.75;;;;;14.46;68.74;100111.72;5082942;27;45459;-49
2021/10/05 10:27:13;;;;;;;;;2.00;1.00;;;;;14.46;68.61;100109.97;5100544;27;45239;-53
2021/10/05 10:29:39;;;;;;;;;0.67;0.67;;;;;14.50;68.78;100109.84;5100671;27;46359;-48
2021/10/05 10:32:25;;;;;;;;;1.00;1.00;;;;;14.53;68.55;100110.56;5100097;27;45171;-53
2021/10/05 10:35:06;;;;;;;;;0.00;0.00;;;;;14.55;68.90;100113.16;5099495;27;45370;-51
2021/10/05 10:37:44;;;;;;;;;5.00;2.00;;;;;14.57;68.75;100108.66;5093560;27;45309;-50
2021/10/05 10:40:10;;;;;;;;;1.00;1.00;;;;;14.59;68.66;100107.69;5097165;27;46189;-50
2021/10/05 10:42:35;;;;;;;;;1.00;1.00;;;;;14.63;68.72;100114.56;5086319;27;45240;-47
2021/10/05 10:45:11;;;;;;;;;0.50;0.00;;;;;14.65;68.47;100124.25;5083389;27;45282;-50
2021/10/05 10:47:41;;;;;;;;;2.00;0.50;;;;;14.69;68.58;100123.19;5082410;27;46005;-48
2021/10/05 10:50:09;;;;;;;;;1.25;0.75;;;;;14.73;68.71;100130.94;5095455;27;46181;-50
2021/10/05 10:52:37;;;;;;;;;1.00;0.25;;;;;14.76;68.11;100132.59;5092676;27;45228;-50
2021/10/05 10:55:05;;;;;;;;;1.00;0.00;;;;;14.78;67.79;100134.25;5087067;27;45319;-51
2021/10/05 10:57:43;;;;;;;;;1.75;1.00;;;;;14.79;67.88;100133.34;5093329;27;45347;-52
2021/10/05 11:00:09;;;;;;;;;2.67;1.00;;;;;14.83;68.17;100144.66;5069530;27;46566;-51
2021/10/05 11:02:50;;;;;;;;;1.33;0.67;;;;;14.89;68.07;100149.69;5100380;27;45560;-48
2021/10/05 11:05:19;;;;;;;;;3.00;1.00;;;;;14.98;67.52;100150.22;5090590;27;45330;-51
2021/10/05 11:07:44;;;;;;;;;3.00;0.00;;;;;15.07;67.75;100155.13;5093744;27;45217;-51
2021/10/05 11:10:10;;;;;;;;;1.33;0.67;;;;;15.18;68.16;100150.25;5090845;27;46292;-48
2021/10/05 11:12:39;;;;;;;;;0.00;0.00;;;;;15.30;68.12;100150.66;5086699;27;45175;-49
2021/10/05 11:15:08;;;;;;;;;3.00;2.00;;;;;15.43;68.14;100167.69;5089263;27;45379;-52
2021/10/05 11:17:35;;;;;;;;;0.00;0.00;;;;;15.54;68.03;100167.25;5093253;27;45403;-49
2021/10/05 11:20:07;;;;;;;;;1.00;1.00;;;;;15.64;68.19;100179.16;5092136;27;45421;-51
2021/10/05 11:22:34;;;;;;;;;1.67;0.67;;;;;15.76;67.53;100175.97;5078922;27;45629;-51
2021/10/05 11:24:59;;;;;;;;;2.00;0.33;;;;;15.85;67.16;100185.31;5079917;28;45470;-49